Time;durP1;ratioP1;P1;durP2;ratioP2;P2;SDS_P1;SDS_P2;PMS_P1;PMS_P2;Temp;Humidity;BMP_temperature;BMP_pressure;BME280_temperature;BME280_humidity;BME280_pressure;Samples;Min_cycle;Max_cycle;Signal;HPM_P1;HPM_P2
2022/05/10 00:01:39;;;;;;;13.45;6.13;;;12.20;99.90;;;;;;5014361;28;20045;-90
2022/05/10 00:04:10;;;;;;;9.73;6.22;;;12.10;99.90;;;;;;4994097;28;20051;-87
2022/05/10 00:06:50;;;;;;;13.27;6.47;;;12.10;1.00;;;;;;5006625;28;20053;-89
2022/05/10 00:09:29;;;;;;;14.43;6.32;;;12.10;1.00;;;;;;4998628;28;20141;-88
2022/05/10 00:12:04;;;;;;;12.05;6.50;;;12.10;1.00;;;;;;5001230;28;20049;-89
2022/05/10 00:14:51;;;;;;;12.52;6.90;;;12.00;1.00;;;;;;5011512;28;20096;-88
2022/05/10 00:17:40;;;;;;;12.05;6.65;;;12.00;1.00;;;;;;5033103;28;20390;-89
2022/05/10 00:20:17;;;;;;;11.30;6.70;;;12.00;1.00;;;;;;5001187;28;20052;-89
2022/05/10 00:23:08;;;;;;;14.85;6.20;;;12.00;1.00;;;;;;5003145;28;20362;-89
2022/05/10 00:25:41;;;;;;;10.32;6.35;;;12.00;1.00;;;;;;5012924;28;20501;-89
2022/05/10 00:28:17;;;;;;;12.30;6.32;;;12.00;1.00;;;;;;5014112;28;20033;-87
2022/05/10 00:30:46;;;;;;;12.52;6.45;;;12.00;1.00;;;;;;5002363;28;20059;-88
2022/05/10 00:33:35;;;;;;;16.65;6.63;;;12.00;1.00;;;;;;5009227;28;20699;-88
2022/05/10 00:36:04;;;;;;;14.57;6.32;;;12.10;1.00;;;;;;5033614;28;20044;-88
2022/05/10 00:38:43;;;;;;;10.60;6.90;;;12.10;1.00;;;;;;5028765;28;20025;-88
2022/05/10 00:41:27;;;;;;;12.23;6.38;;;12.10;1.00;;;;;;5036355;28;20049;-89
2022/05/10 00:44:04;;;;;;;12.68;6.55;;;12.10;1.00;;;;;;5020922;28;20028;-89
2022/05/10 00:46:36;;;;;;;14.68;6.72;;;12.00;1.00;;;;;;5019040;28;20129;-89
2022/05/10 00:49:33;;;;;;;13.00;6.30;;;12.00;1.00;;;;;;5025752;28;20051;-88
2022/05/10 00:52:08;;;;;;;10.48;6.65;;;12.00;1.00;;;;;;5032522;28;20122;-88
2022/05/10 00:54:37;;;;;;;10.25;7.00;;;11.90;1.00;;;;;;5031409;28;20512;-88
2022/05/10 00:57:40;;;;;;;12.10;6.43;;;11.70;1.00;;;;;;5032590;28;20731;-88
2022/05/10 01:00:17;;;;;;;15.35;6.75;;;11.70;1.00;;;;;;5021823;28;20036;-87
2022/05/10 01:03:09;;;;;;;13.10;6.60;;;11.70;1.00;;;;;;5032584;28;20039;-88
2022/05/10 01:05:40;;;;;;;11.18;6.05;;;11.60;1.00;;;;;;4939758;28;20046;-89
2022/05/10 01:08:09;;;;;;;11.50;7.18;;;11.60;1.00;;;;;;5013413;28;20052;-89
2022/05/10 01:11:00;;;;;;;13.95;6.50;;;11.40;1.00;;;;;;5033714;28;20079;-88
2022/05/10 01:13:56;;;;;;;9.82;6.47;;;11.50;1.00;;;;;;5016883;28;20340;-88
2022/05/10 01:16:31;;;;;;;10.45;5.93;;;11.50;1.00;;;;;;5017085;28;20064;-88
2022/05/10 01:19:05;;;;;;;13.43;6.65;;;11.50;1.00;;;;;;5023992;28;20645;-89
2022/05/10 01:22:13;;;;;;;11.10;6.70;;;11.60;1.00;;;;;;5021463;28;20144;-89
2022/05/10 01:25:31;;;;;;;14.30;6.30;;;11.60;1.00;;;;;;5034436;28;20055;-89
2022/05/10 01:28:45;;;;;;;12.32;6.95;;;11.50;1.00;;;;;;5033941;28;20544;-89
2022/05/10 01:31:27;;;;;;;11.73;6.63;;;11.50;1.00;;;;;;5021780;28;20057;-89
2022/05/10 01:33:58;;;;;;;12.23;6.28;;;11.50;1.00;;;;;;5040986;28;20506;-88
2022/05/10 01:36:42;;;;;;;12.80;6.38;;;11.50;1.00;;;;;;5032402;28;20146;-88
2022/05/10 01:39:23;;;;;;;11.73;6.28;;;11.40;1.00;;;;;;5011513;28;20040;-89
2022/05/10 01:42:15;;;;;;;12.48;6.15;;;11.50;1.00;;;;;;5021423;28;20037;-88
2022/05/10 01:45:04;;;;;;;9.43;6.57;;;11.50;1.00;;;;;;5019245;28;20040;-88
2022/05/10 01:47:39;;;;;;;11.55;6.30;;;11.50;1.00;;;;;;5015842;28;20033;-88
2022/05/10 01:50:39;;;;;;;14.88;7.25;;;11.50;1.00;;;;;;5020000;28;20509;-88
2022/05/10 01:53:18;;;;;;;12.35;6.55;;;11.50;1.00;;;;;;5016622;28;20096;-89
2022/05/10 01:56:01;;;;;;;13.35;6.57;;;11.40;1.00;;;;;;5018840;28;20036;-88
2022/05/10 01:58:38;;;;;;;10.73;6.50;;;11.50;1.00;;;;;;5020475;28;20165;-89
2022/05/10 02:01:21;;;;;;;12.55;6.85;;;11.50;1.00;;;;;;5037335;28;20036;-88
2022/05/10 02:04:07;;;;;;;13.43;6.78;;;11.60;1.00;;;;;;5019136;28;20580;-88
2022/05/10 02:06:45;;;;;;;11.40;6.85;;;11.60;1.00;;;;;;5020585;28;20053;-88
2022/05/10 02:09:57;;;;;;;11.30;6.53;;;11.50;1.00;;;;;;5028676;28;20364;-88
2022/05/10 02:12:51;;;;;;;12.93;6.55;;;11.60;1.00;;;;;;5021435;28;20072;-89
2022/05/10 02:15:34;;;;;;;14.93;6.70;;;11.70;1.00;;;;;;5014375;28;20140;-89
2022/05/10 02:18:11;;;;;;;11.80;6.43;;;11.70;1.00;;;;;;5013295;28;20111;-89
2022/05/10 02:20:52;;;;;;;13.45;6.70;;;11.70;1.00;;;;;;5015309;28;20927;-87
2022/05/10 02:23:20;;;;;;;11.45;6.70;;;11.80;1.00;;;;;;5017630;28;20041;-88
2022/05/10 02:26:15;;;;;;;11.77;6.75;;;11.80;1.00;;;;;;5020248;28;20174;-89
2022/05/10 02:29:06;;;;;;;16.95;6.97;;;11.90;1.00;;;;;;5014441;28;20048;-89
2022/05/10 02:34:35;;;;;;;12.85;7.00;;;12.00;1.00;;;;;;5029684;28;20160;-88
2022/05/10 02:37:03;;;;;;;10.52;7.18;;;12.10;1.00;;;;;;5016580;28;20049;-88
2022/05/10 02:39:34;;;;;;;13.75;6.55;;;12.00;1.00;;;;;;5013511;28;20648;-88
2022/05/10 02:42:01;;;;;;;10.23;6.90;;;12.10;1.00;;;;;;5019652;28;20538;-89
2022/05/10 02:44:30;;;;;;;11.57;6.93;;;12.00;1.00;;;;;;5033412;28;20203;-89
2022/05/10 02:46:57;;;;;;;11.93;6.63;;;12.10;1.00;;;;;;5032841;28;20040;-88
2022/05/10 02:49:23;;;;;;;14.52;7.20;;;12.20;1.00;;;;;;5016760;28;20410;-89
2022/05/10 02:51:48;;;;;;;10.10;7.53;;;12.20;1.00;;;;;;5029880;28;20044;-88
2022/05/10 02:54:14;;;;;;;9.60;6.80;;;12.20;1.00;;;;;;5014282;28;20024;-88
2022/05/10 02:56:42;;;;;;;15.38;7.55;;;12.20;1.00;;;;;;5031261;28;20048;-89
2022/05/10 02:59:20;;;;;;;11.18;7.28;;;12.30;1.00;;;;;;5031462;28;20110;-87
2022/05/10 03:02:12;;;;;;;12.35;7.68;;;12.30;1.00;;;;;;5030669;28;20571;-89
2022/05/10 03:04:52;;;;;;;12.27;7.50;;;12.30;1.00;;;;;;5015618;28;20484;-90
2022/05/10 03:07:17;;;;;;;11.35;7.78;;;12.30;1.00;;;;;;5019116;28;20036;-89
2022/05/10 03:09:43;;;;;;;13.05;7.85;;;12.30;1.00;;;;;;5013348;28;20044;-87
2022/05/10 03:12:12;;;;;;;13.77;7.90;;;12.30;1.00;;;;;;5032191;28;20055;-88
2022/05/10 03:14:43;;;;;;;10.98;7.50;;;12.40;1.00;;;;;;5018620;28;20119;-88
2022/05/10 03:17:10;;;;;;;14.45;7.75;;;12.40;1.00;;;;;;5046276;28;20041;-89
2022/05/10 03:19:48;;;;;;;16.60;8.50;;;12.30;1.00;;;;;;5033321;28;20048;-89
2022/05/10 03:22:17;;;;;;;13.20;7.75;;;12.40;1.00;;;;;;5031890;28;20036;-90
2022/05/10 03:24:46;;;;;;;13.32;7.97;;;12.40;1.00;;;;;;5029872;28;20045;-90
2022/05/10 03:27:25;;;;;;;12.77;7.80;;;12.40;1.00;;;;;;5026261;28;21289;-89
2022/05/10 03:29:51;;;;;;;14.73;8.23;;;12.40;1.00;;;;;;5035649;28;20087;-89
2022/05/10 03:32:27;;;;;;;14.13;7.85;;;12.40;1.00;;;;;;5019362;28;20460;-89
2022/05/10 03:34:57;;;;;;;15.27;7.70;;;12.40;1.00;;;;;;5028503;28;20083;-90
2022/05/10 03:37:38;;;;;;;13.95;7.32;;;12.40;1.00;;;;;;5031154;28;20063;-88
2022/05/10 03:40:15;;;;;;;16.63;8.10;;;12.50;1.00;;;;;;5016425;28;20129;-88
2022/05/10 03:42:49;;;;;;;14.75;8.02;;;12.50;1.00;;;;;;5032936;28;20108;-89
2022/05/10 03:45:25;;;;;;;12.10;8.75;;;12.50;1.00;;;;;;5030346;28;20123;-89
2022/05/10 03:47:57;;;;;;;12.35;8.25;;;12.50;1.00;;;;;;5020015;28;20048;-89
2022/05/10 03:50:26;;;;;;;14.50;9.15;;;12.50;1.00;;;;;;5026684;28;20032;-89
2022/05/10 03:52:55;;;;;;;15.55;8.63;;;12.50;1.00;;;;;;5018404;28;20044;-88
2022/05/10 03:55:31;;;;;;;13.02;8.23;;;12.50;1.00;;;;;;5032108;28;20094;-89
2022/05/10 03:57:59;;;;;;;15.77;9.38;;;12.50;1.00;;;;;;5032243;28;20032;-89
2022/05/10 04:00:28;;;;;;;12.27;9.07;;;12.60;1.00;;;;;;5021120;28;20327;-89
2022/05/10 04:02:56;;;;;;;15.80;8.80;;;12.60;1.00;;;;;;5019453;28;20045;-88
2022/05/10 04:05:26;;;;;;;16.60;9.05;;;12.60;99.90;;;;;;5027366;28;20141;-89
2022/05/10 04:07:53;;;;;;;15.70;8.93;;;12.60;1.00;;;;;;5013525;28;20044;-87
2022/05/10 04:10:20;;;;;;;15.35;9.35;;;12.70;1.00;;;;;;5014360;28;20055;-88
2022/05/10 04:12:54;;;;;;;13.40;8.60;;;12.70;1.00;;;;;;5018474;28;20497;-87
2022/05/10 04:15:26;;;;;;;18.45;9.73;;;12.70;1.00;;;;;;5030985;28;20037;-87
2022/05/10 04:17:57;;;;;;;17.52;9.57;;;12.70;1.00;;;;;;5030512;28;20048;-88
2022/05/10 04:20:23;;;;;;;13.73;9.07;;;12.80;1.00;;;;;;5013310;28;20040;-87
2022/05/10 04:22:49;;;;;;;15.75;9.40;;;12.90;1.00;;;;;;5033564;28;20044;-88
2022/05/10 04:25:18;;;;;;;18.85;9.88;;;12.90;1.00;;;;;;5030568;28;20049;-88
2022/05/10 04:27:44;;;;;;;12.95;8.75;;;12.90;99.90;;;;;;5020662;28;20044;-87
2022/05/10 04:30:13;;;;;;;16.45;9.68;;;13.00;1.00;;;;;;5013677;28;20647;-88
2022/05/10 04:32:40;;;;;;;20.75;9.85;;;13.00;1.00;;;;;;5021576;28;20058;-88
2022/05/10 04:35:06;;;;;;;17.25;10.25;;;13.00;1.00;;;;;;5033217;28;20566;-89
2022/05/10 04:37:32;;;;;;;12.48;9.60;;;13.10;99.90;;;;;;5036830;28;20045;-87
2022/05/10 04:42:45;;;;;;;20.48;9.90;;;13.20;99.90;;;;;;5031499;28;20421;-88
2022/05/10 04:45:13;;;;;;;17.33;10.00;;;13.30;99.90;;;;;;5020062;28;20237;-87
2022/05/10 04:47:42;;;;;;;14.57;9.38;;;13.30;99.90;;;;;;5022367;28;20099;-87
2022/05/10 04:50:09;;;;;;;13.45;10.27;;;13.40;99.90;;;;;;5017915;28;20037;-88
2022/05/10 04:52:43;;;;;;;17.65;10.43;;;13.40;99.90;;;;;;5020626;28;20040;-88
2022/05/10 04:55:15;;;;;;;18.00;10.37;;;13.50;99.90;;;;;;5032810;28;20538;-87
2022/05/10 04:57:41;;;;;;;20.50;10.32;;;13.50;99.90;;;;;;5023458;28;20096;-88
2022/05/10 05:00:13;;;;;;;19.23;10.18;;;13.60;99.90;;;;;;5019207;28;20036;-88
2022/05/10 05:02:46;;;;;;;18.23;10.52;;;13.60;99.90;;;;;;5023083;28;20040;-87
2022/05/10 05:05:24;;;;;;;16.40;10.20;;;13.70;99.90;;;;;;5023283;28;20120;-88
2022/05/10 05:08:03;;;;;;;15.82;10.38;;;13.70;99.90;;;;;;5022989;28;20044;-88
2022/05/10 05:10:48;;;;;;;17.40;10.20;;;13.80;99.90;;;;;;5021010;28;20056;-88
2022/05/10 05:13:15;;;;;;;16.00;10.00;;;13.90;99.90;;;;;;5021842;28;20028;-88
2022/05/10 05:15:59;;;;;;;17.98;11.15;;;14.00;99.90;;;;;;5019982;28;20040;-89
2022/05/10 05:18:24;;;;;;;16.27;9.85;;;14.10;99.90;;;;;;5018249;28;20114;-88
2022/05/10 05:20:56;;;;;;;18.42;10.80;;;14.20;99.90;;;;;;5036894;28;20044;-89
2022/05/10 05:23:22;;;;;;;13.57;9.80;;;14.20;99.90;;;;;;5038334;28;20037;-88
2022/05/10 05:25:49;;;;;;;18.80;9.98;;;14.40;99.90;;;;;;5038301;28;21262;-88
2022/05/10 05:28:23;;;;;;;17.00;9.68;;;14.40;99.90;;;;;;5052208;28;20055;-88
2022/05/10 05:30:52;;;;;;;17.20;10.40;;;14.50;99.90;;;;;;5036006;28;20037;-88
2022/05/10 05:33:21;;;;;;;15.63;10.00;;;14.60;99.90;;;;;;5034011;28;21054;-88
2022/05/10 05:35:49;;;;;;;15.55;10.05;;;14.70;99.90;;;;;;5038813;28;20059;-88
2022/05/10 05:38:15;;;;;;;15.68;9.63;;;14.80;99.90;;;;;;5031262;28;20070;-88
2022/05/10 05:40:41;;;;;;;15.35;10.20;;;14.90;99.90;;;;;;5027510;28;20076;-88
2022/05/10 05:43:07;;;;;;;17.58;9.85;;;14.90;99.90;;;;;;5025043;28;20123;-89
2022/05/10 05:45:33;;;;;;;16.35;9.93;;;14.90;99.90;;;;;;5036376;28;20195;-88
2022/05/10 05:47:59;;;;;;;15.95;9.68;;;15.00;99.90;;;;;;5033967;28;20501;-88
2022/05/10 05:50:30;;;;;;;18.70;11.48;;;15.10;99.90;;;;;;5036993;28;20029;-88
2022/05/10 05:52:59;;;;;;;13.27;9.40;;;15.20;99.90;;;;;;5019925;28;20040;-88
2022/05/10 05:55:25;;;;;;;16.85;9.32;;;15.20;99.90;;;;;;5024815;28;20040;-89
2022/05/10 05:57:51;;;;;;;15.15;9.93;;;15.40;99.90;;;;;;5039996;28;20033;-88
2022/05/10 06:00:23;;;;;;;16.80;9.55;;;15.40;99.90;;;;;;5041899;28;20368;-88
2022/05/10 06:02:50;;;;;;;16.58;9.93;;;15.50;99.90;;;;;;5017630;28;20074;-88
2022/05/10 06:05:16;;;;;;;19.65;10.13;;;15.70;99.90;;;;;;5038087;28;20043;-88
2022/05/10 06:07:42;;;;;;;12.20;9.23;;;15.70;99.90;;;;;;5022761;28;20301;-88
2022/05/10 06:10:10;;;;;;;12.73;9.45;;;15.90;99.90;;;;;;5038575;28;20131;-89
2022/05/10 06:12:39;;;;;;;16.27;9.25;;;16.00;99.90;;;;;;5020564;28;20781;-87
2022/05/10 06:15:12;;;;;;;14.30;9.27;;;16.10;99.90;;;;;;5036457;28;20046;-88
2022/05/10 06:17:43;;;;;;;13.00;9.30;;;16.20;99.90;;;;;;5022515;28;20390;-89
2022/05/10 06:20:11;;;;;;;15.43;10.10;;;16.40;99.90;;;;;;5021246;28;20092;-88
2022/05/10 06:22:37;;;;;;;14.70;9.32;;;16.50;99.90;;;;;;5026390;28;20044;-89
2022/05/10 06:25:04;;;;;;;15.02;9.70;;;16.70;99.90;;;;;;5039316;28;20051;-88
2022/05/10 06:27:34;;;;;;;11.70;9.25;;;16.90;99.90;;;;;;5023614;28;20040;-88
2022/05/10 06:30:00;;;;;;;12.60;9.15;;;17.00;99.90;;;;;;5028667;28;20029;-88
2022/05/10 06:32:31;;;;;;;14.52;9.60;;;17.20;99.90;;;;;;5025797;28;20505;-88
2022/05/10 06:35:03;;;;;;;12.68;9.35;;;17.30;99.90;;;;;;5025531;28;20051;-89
2022/05/10 06:40:16;;;;;;;13.85;8.63;;;17.70;99.90;;;;;;5034083;28;20385;-89
2022/05/10 06:42:45;;;;;;;14.07;8.82;;;18.00;99.90;;;;;;5024206;28;20106;-89
2022/05/10 06:45:16;;;;;;;16.73;10.02;;;18.10;99.90;;;;;;5021990;28;20051;-88
2022/05/10 06:47:49;;;;;;;12.90;8.85;;;18.20;99.90;;;;;;5021920;28;20107;-89
2022/05/10 06:50:21;;;;;;;14.57;9.10;;;18.40;99.90;;;;;;5035029;28;20155;-89
2022/05/10 06:53:11;;;;;;;11.98;8.60;;;18.50;99.90;;;;;;5039295;28;20032;-89
2022/05/10 06:55:47;;;;;;;19.08;9.10;;;18.50;99.90;;;;;;5021105;28;20203;-89
2022/05/10 06:58:16;;;;;;;12.68;8.52;;;18.80;99.90;;;;;;5037688;28;20131;-89
2022/05/10 07:00:47;;;;;;;10.80;8.27;;;18.80;99.90;;;;;;5035404;28;20185;-89
2022/05/10 07:03:33;;;;;;;11.27;7.88;;;19.00;99.90;;;;;;5038949;28;20036;-88
2022/05/10 07:06:07;;;;;;;10.77;7.97;;;19.00;99.90;;;;;;5035553;28;20068;-88
2022/05/10 07:08:37;;;;;;;12.50;7.78;;;19.20;99.90;;;;;;5034817;28;20057;-88
2022/05/10 07:11:09;;;;;;;10.10;7.65;;;19.40;99.90;;;;;;5022217;28;20985;-89
2022/05/10 07:13:41;;;;;;;11.50;6.82;;;19.60;99.90;;;;;;5014621;28;20474;-89
2022/05/10 07:16:07;;;;;;;13.30;7.65;;;19.70;99.90;;;;;;5035188;28;20044;-89
2022/05/10 07:18:36;;;;;;;11.75;7.57;;;20.00;99.90;;;;;;5035478;28;20101;-89
2022/05/10 07:21:02;;;;;;;14.07;7.57;;;19.90;99.90;;;;;;5033617;28;20032;-88
2022/05/10 07:23:34;;;;;;;11.02;7.40;;;19.90;99.90;;;;;;5023876;28;20499;-89
2022/05/10 07:26:00;;;;;;;12.23;7.50;;;20.00;99.90;;;;;;5023424;28;20028;-88
2022/05/10 07:28:29;;;;;;;12.50;7.40;;;20.30;99.90;;;;;;5021009;28;20565;-89
2022/05/10 07:30:56;;;;;;;12.45;6.70;;;20.40;99.90;;;;;;5038210;28;20105;-88
2022/05/10 07:33:51;;;;;;;13.50;6.60;;;20.50;99.90;;;;;;5019096;28;20045;-89
2022/05/10 07:36:36;;;;;;;11.70;6.70;;;20.40;99.90;;;;;;5006034;28;20064;-89
2022/05/10 07:39:12;;;;;;;13.07;5.93;;;20.60;99.90;;;;;;5024995;28;20900;-91
2022/05/10 07:41:48;;;;;;;9.63;5.93;;;20.80;99.90;;;;;;5025221;28;20124;-89
2022/05/10 07:44:24;;;;;;;13.85;5.82;;;21.10;99.90;;;;;;5041998;28;20041;-90
2022/05/10 07:46:52;;;;;;;11.13;6.50;;;21.20;99.90;;;;;;5022096;28;20033;-90
2022/05/10 07:49:27;;;;;;;11.13;5.65;;;21.40;99.90;;;;;;5024434;28;20083;-89
2022/05/10 07:51:59;;;;;;;10.43;5.68;;;21.50;99.90;;;;;;5030120;28;20478;-88
2022/05/10 07:54:28;;;;;;;10.57;5.10;;;21.60;99.90;;;;;;5025033;28;20041;-88
2022/05/10 07:56:53;;;;;;;17.92;6.03;;;21.70;99.90;;;;;;5032919;28;20106;-89
2022/05/10 07:59:19;;;;;;;12.82;5.55;;;21.70;99.90;;;;;;5025470;28;20040;-89
2022/05/10 08:01:45;;;;;;;10.82;5.10;;;21.90;99.90;;;;;;5023452;28;20159;-90
2022/05/10 08:04:14;;;;;;;9.90;5.72;;;22.10;99.90;;;;;;5053363;28;20474;-89
2022/05/10 08:06:47;;;;;;;7.85;4.80;;;22.20;99.90;;;;;;5038000;28;20055;-89
2022/05/10 08:09:13;;;;;;;9.70;5.13;;;22.20;99.90;;;;;;5023321;28;20045;-88
2022/05/10 08:11:43;;;;;;;9.13;4.75;;;22.40;99.90;;;;;;5023029;28;20032;-89
2022/05/10 08:14:15;;;;;;;15.77;4.88;;;22.40;99.90;;;;;;5038985;28;20116;-90
2022/05/10 08:16:45;;;;;;;9.95;5.53;;;22.70;99.90;;;;;;5038016;28;20060;-90
2022/05/10 08:19:17;;;;;;;8.48;4.25;;;22.80;99.90;;;;;;5040080;28;20044;-89
2022/05/10 08:21:46;;;;;;;12.55;5.53;;;22.90;99.90;;;;;;5039939;28;20450;-89
2022/05/10 08:24:24;;;;;;;7.88;4.47;;;23.00;99.90;;;;;;5020649;28;20123;-89
2022/05/10 08:26:55;;;;;;;9.50;4.80;;;22.80;99.90;;;;;;5025254;28;20056;-90
2022/05/10 08:29:27;;;;;;;9.80;4.30;;;22.80;99.90;;;;;;5036525;28;20099;-90
2022/05/10 08:31:55;;;;;;;7.75;4.05;;;22.90;99.90;;;;;;5026874;28;20052;-90
2022/05/10 08:34:21;;;;;;;9.85;3.88;;;23.10;99.90;;;;;;5034154;28;20055;-90
2022/05/10 08:36:53;;;;;;;9.50;4.25;;;23.20;99.90;;;;;;5019596;28;20053;-90
2022/05/10 08:39:18;;;;;;;9.68;4.35;;;23.20;99.90;;;;;;5033342;28;20041;-89
2022/05/10 08:42:24;;;;;;;11.05;4.20;;;22.90;99.90;;;;;;5003132;28;20040;-89
2022/05/10 08:44:57;;;;;;;11.18;4.55;;;23.00;99.90;;;;;;5035153;28;20226;-89
2022/05/10 08:47:25;;;;;;;7.63;4.13;;;23.10;99.90;;;;;;5022924;28;20053;-88
2022/05/10 08:50:02;;;;;;;6.78;4.10;;;23.20;99.90;;;;;;5018777;28;20041;-88
2022/05/10 08:53:01;;;;;;;7.28;4.22;;;23.10;99.90;;;;;;5019184;28;20029;-89
2022/05/10 08:55:33;;;;;;;7.35;4.50;;;23.10;99.90;;;;;;5015614;28;20076;-89
2022/05/10 08:58:40;;;;;;;10.45;4.40;;;23.10;99.90;;;;;;5003474;28;20506;-90
2022/05/10 09:01:29;;;;;;;;;;;23.00;99.90;;;;;;5036217;28;20479;-89
2022/05/10 09:04:21;;;;;;;14.98;4.63;;;23.10;99.90;;;;;;5017225;28;19917;-88
2022/05/10 09:07:15;;;;;;;;;;;23.20;99.90;;;;;;5006851;28;20044;-89
2022/05/10 09:10:22;;;;;;;7.28;4.05;;;23.10;99.90;;;;;;5012828;28;19972;-89
2022/05/10 09:13:15;;;;;;;16.35;4.88;;;23.00;99.90;;;;;;5007357;28;20604;-90
2022/05/10 09:16:00;;;;;;;9.68;4.20;;;23.20;99.90;;;;;;4998958;28;20049;-91
2022/05/10 09:18:52;;;;;;;;;;;23.10;99.90;;;;;;5022100;28;20033;-89
2022/05/10 09:21:34;;;;;;;6.88;3.60;;;23.10;99.90;;;;;;4995364;28;19951;-89
2022/05/10 09:24:00;;;;;;;9.55;3.70;;;23.00;99.90;;;;;;5017211;28;20053;-89
2022/05/10 09:26:34;;;;;;;9.65;4.22;;;22.90;99.90;;;;;;4999461;28;20033;-90
2022/05/10 09:29:00;;;;;;;9.57;4.20;;;23.00;99.90;;;;;;4999339;28;20042;-90
2022/05/10 09:37:33;;;;;;;15.30;4.70;;;23.80;99.90;;;;;;5024966;28;20585;-89
2022/05/10 09:40:25;;;;;;;9.13;4.47;;;23.80;99.90;;;;;;5012799;28;20411;-90
2022/05/10 09:43:12;;;;;;;10.60;4.80;;;23.70;99.90;;;;;;5002383;28;20045;-88
2022/05/10 09:46:29;;;;;;;11.18;5.28;;;24.10;99.90;;;;;;5008133;28;20040;-90
2022/05/10 09:48:55;;;;;;;8.18;5.00;;;24.00;99.90;;;;;;4978620;28;20046;-88
2022/05/10 09:52:16;;;;;;;9.90;5.25;;;24.00;99.90;;;;;;4959787;28;20156;-91
2022/05/10 09:54:56;;;;;;;11.45;5.78;;;24.30;99.90;;;;;;5004779;28;20232;-90
2022/05/10 09:57:35;;;;;;;10.25;5.88;;;24.50;99.90;;;;;;5001571;28;20529;-90
2022/05/10 10:00:05;;;;;;;9.38;5.68;;;24.20;99.90;;;;;;4990028;28;20061;-89
2022/05/10 10:02:36;;;;;;;11.20;5.38;;;24.20;99.90;;;;;;4986773;28;20289;-90
2022/05/10 10:09:16;;;;;;;7.85;5.75;;;23.90;99.90;;;;;;5004479;28;20057;-90
2022/05/10 10:11:48;;;;;;;10.25;5.32;;;24.00;99.90;;;;;;4983202;28;20053;-89
2022/05/10 10:14:53;;;;;;;10.65;5.32;;;23.90;99.90;;;;;;4967722;28;20046;-89
2022/05/10 10:17:39;;;;;;;;;;;24.00;99.90;;;;;;5002099;28;20202;-90
2022/05/10 10:20:31;;;;;;;11.63;5.63;;;23.90;99.90;;;;;;4999338;28;19924;-89
2022/05/10 10:23:18;;;;;;;7.50;5.50;;;24.10;99.90;;;;;;4994051;28;20034;-90
2022/05/10 10:25:51;;;;;;;9.73;5.80;;;24.20;99.90;;;;;;5000117;28;20182;-90
2022/05/10 10:28:51;;;;;;;6.20;5.05;;;24.70;99.90;;;;;;5032104;28;20037;-90
2022/05/10 10:32:03;;;;;;;9.70;5.70;;;25.00;99.90;;;;;;5018782;28;20423;-90
2022/05/10 10:34:42;;;;;;;9.10;6.03;;;24.90;99.90;;;;;;5011002;28;20060;-89
2022/05/10 10:37:34;;;;;;;8.85;5.82;;;25.50;99.90;;;;;;5026640;28;20254;-90
2022/05/10 10:40:15;;;;;;;7.15;6.07;;;26.00;99.90;;;;;;5014777;28;20096;-88
2022/05/10 10:43:09;;;;;;;10.65;6.20;;;25.90;99.90;;;;;;5039619;28;20489;-90
2022/05/10 10:45:45;;;;;;;8.15;5.22;;;25.90;99.90;;;;;;4999599;28;20140;-88
2022/05/10 10:49:12;;;;;;;8.50;5.85;;;25.80;99.90;;;;;;5002843;28;20575;-89
2022/05/10 10:51:43;;;;;;;15.13;6.10;;;25.90;99.90;;;;;;5030780;28;20045;-89
2022/05/10 10:54:25;;;;;;;13.43;6.93;;;25.70;99.90;;;;;;4996164;28;20172;-89
2022/05/10 10:57:18;;;;;;;8.65;6.15;;;25.10;99.90;;;;;;5002554;28;20249;-89
2022/05/10 11:03:50;;;;;;;17.73;6.47;;;24.30;99.90;;;;;;5018691;28;20045;-89
2022/05/10 11:06:52;;;;;;;13.95;5.78;;;23.90;99.90;;;;;;5008290;28;20096;-89
2022/05/10 11:10:04;;;;;;;13.63;6.55;;;23.80;99.90;;;;;;5010932;28;20202;-89
2022/05/10 11:13:10;;;;;;;12.13;6.72;;;23.50;99.90;;;;;;5024386;28;20513;-91
2022/05/10 11:16:13;;;;;;;10.33;7.60;;;23.50;99.90;;;;;;5035538;28;20076;-89
2022/05/10 11:19:21;;;;;;;12.77;6.32;;;23.50;99.90;;;;;;5001084;28;20056;-89
2022/05/10 11:22:22;;;;;;;11.27;6.40;;;23.60;99.90;;;;;;5013816;28;20700;-89
2022/05/10 11:25:19;;;;;;;10.85;6.70;;;23.80;99.90;;;;;;4982414;28;20045;-90
2022/05/10 11:28:22;;;;;;;13.88;6.97;;;23.80;99.90;;;;;;5008635;28;20045;-91
2022/05/10 11:31:12;;;;;;;13.02;7.38;;;23.90;99.90;;;;;;5004771;28;20065;-92
2022/05/10 11:34:07;;;;;;;10.73;7.20;;;24.10;99.90;;;;;;5019687;28;20150;-90
2022/05/10 11:36:44;;;;;;;9.05;7.85;;;24.90;99.90;;;;;;5008385;28;20118;-90
2022/05/10 11:39:19;;;;;;;10.55;7.03;;;24.50;99.90;;;;;;5014035;28;20103;-89
2022/05/10 11:42:32;;;;;;;;;;;;;;;;;;;;;
2022/05/10 11:49:06;;;;;;;8.93;5.03;;;24.30;99.90;;;;;;5018255;28;20045;-89
2022/05/10 11:51:44;;;;;;;11.85;4.97;;;24.10;99.90;;;;;;5018216;28;20042;-89
2022/05/10 11:54:47;;;;;;;8.82;4.13;;;24.10;99.90;;;;;;5000397;28;20047;-90
2022/05/10 11:57:19;;;;;;;10.93;4.70;;;23.90;99.80;;;;;;5028075;28;20048;-92
2022/05/10 11:59:48;;;;;;;9.45;4.68;;;24.10;99.90;;;;;;5001939;28;20047;-90
2022/05/10 12:02:54;;;;;;;9.00;4.75;;;24.30;99.90;;;;;;5007204;28;20056;-90
2022/05/10 12:05:24;;;;;;;8.70;4.68;;;25.10;99.90;;;;;;5011374;28;20065;-90
2022/05/10 12:08:05;;;;;;;10.15;4.65;;;25.10;99.90;;;;;;5009388;28;20412;-91
2022/05/10 12:10:47;;;;;;;8.93;4.75;;;24.50;98.50;;;;;;5019275;28;20048;-90
2022/05/10 12:23:01;;;;;;;8.75;6.13;;;24.70;99.20;;;;;;5033181;28;20056;-90
2022/05/10 12:25:59;;;;;;;11.60;5.95;;;24.10;96.90;;;;;;5019500;28;20128;-90
2022/05/10 12:28:51;;;;;;;13.38;6.30;;;24.00;96.80;;;;;;5020534;28;20228;-90
2022/05/10 12:31:35;;;;;;;11.60;5.88;;;24.60;98.20;;;;;;5023781;28;20056;-89
2022/05/10 12:34:47;;;;;;;16.67;6.70;;;24.70;99.20;;;;;;5008936;28;20283;-91
2022/05/10 12:37:48;;;;;;;12.48;7.18;;;24.90;98.70;;;;;;4989093;28;20055;-90
2022/05/10 12:40:31;;;;;;;15.05;6.85;;;25.60;99.90;;;;;;5019658;28;20252;-90
2022/05/10 12:44:06;;;;;;;12.98;7.18;;;24.90;99.60;;;;;;5018698;28;20431;-90
2022/05/10 12:46:48;;;;;;;11.38;6.88;;;24.70;99.50;;;;;;5019171;28;20120;-91
2022/05/10 12:49:26;;;;;;;11.85;7.07;;;24.40;99.30;;;;;;5004328;28;20065;-90
2022/05/10 12:52:39;;;;;;;11.15;6.60;;;24.50;99.70;;;;;;5014491;28;20763;-88
2022/05/10 12:55:38;;;;;;;13.40;6.68;;;24.50;99.90;;;;;;4991177;28;20051;-90
2022/05/10 12:58:17;;;;;;;11.93;5.90;;;23.80;98.30;;;;;;4999936;28;20041;-91
2022/05/10 13:01:02;;;;;;;12.07;5.88;;;23.70;97.30;;;;;;5002917;28;20564;-90
2022/05/10 13:03:45;;;;;;;12.70;5.82;;;23.80;97.90;;;;;;5016943;28;20041;-89
2022/05/10 13:06:35;;;;;;;9.32;5.25;;;23.80;97.20;;;;;;5020681;28;21068;-90
2022/05/10 13:09:24;;;;;;;8.23;5.47;;;23.80;98.10;;;;;;5018422;28;20568;-90
2022/05/10 13:12:13;;;;;;;10.13;4.97;;;23.60;96.60;;;;;;5018555;28;20079;-91
2022/05/10 13:15:02;;;;;;;7.38;4.60;;;23.30;96.00;;;;;;5019616;28;20624;-91
2022/05/10 13:17:37;;;;;;;7.82;4.50;;;23.30;96.40;;;;;;5019524;28;20103;-89
2022/05/10 13:20:20;;;;;;;9.00;4.40;;;23.30;96.40;;;;;;5005185;28;20041;-91
2022/05/10 13:23:21;;;;;;;13.20;4.20;;;23.00;94.80;;;;;;5017590;28;20102;-89
2022/05/10 13:26:06;;;;;;;12.00;4.00;;;23.10;94.60;;;;;;5020867;28;20060;-90
2022/05/10 13:29:01;;;;;;;11.30;4.40;;;23.30;94.70;;;;;;5008436;28;20041;-89
2022/05/10 13:31:40;;;;;;;8.98;3.47;;;23.20;94.00;;;;;;5004973;28;20380;-88
2022/05/10 13:34:17;;;;;;;18.05;3.72;;;23.40;94.90;;;;;;4995773;28;20133;-91
2022/05/10 13:36:53;;;;;;;15.45;3.53;;;23.20;93.90;;;;;;5002909;28;20544;-91
2022/05/10 13:39:48;;;;;;;17.95;4.30;;;22.90;93.00;;;;;;5002306;28;20056;-89
2022/05/10 13:42:20;;;;;;;8.95;3.90;;;22.80;91.70;;;;;;5002274;28;20192;-90
2022/05/10 13:44:49;;;;;;;11.98;4.25;;;23.00;92.10;;;;;;5001293;28;20076;-91
2022/05/10 13:47:39;;;;;;;8.63;3.55;;;22.90;91.80;;;;;;5001976;28;20094;-90
2022/05/10 13:50:06;;;;;;;14.75;3.92;;;23.00;93.60;;;;;;5004653;28;20075;-89
2022/05/10 13:52:56;;;;;;;9.60;3.33;;;22.80;91.70;;;;;;5005869;28;20112;-90
2022/05/10 13:55:28;;;;;;;7.85;3.25;;;22.90;91.50;;;;;;5001308;28;20052;-90
2022/05/10 13:58:02;;;;;;;9.13;3.05;;;22.80;91.70;;;;;;5005162;28;20530;-91
2022/05/10 14:00:47;;;;;;;15.10;3.33;;;22.40;89.20;;;;;;5013101;28;20561;-90
2022/05/10 14:03:22;;;;;;;9.93;3.17;;;22.30;86.20;;;;;;4973363;28;20467;-92
2022/05/10 14:06:09;;;;;;;9.98;2.80;;;22.00;83.10;;;;;;4958611;28;20127;-89
2022/05/10 14:08:43;;;;;;;12.18;3.00;;;21.80;80.80;;;;;;4984013;28;20526;-88
2022/05/10 14:11:09;;;;;;;3.50;2.20;;;21.90;82.10;;;;;;4964976;28;20042;-90
2022/05/10 14:17:28;;;;;;;6.43;2.22;;;21.50;72.30;;;;;;4919316;28;20039;-90
2022/05/10 14:19:57;;;;;;;5.85;1.75;;;21.60;73.70;;;;;;4961102;28;20091;-91
2022/05/10 14:22:30;;;;;;;6.32;1.70;;;21.40;70.60;;;;;;4968305;28;20484;-90